createdAt,value
2019-05-09T00:01:23.517Z,32.48
2019-05-09T00:03:49.243Z,32.69
2019-05-09T00:06:15.668Z,32.89
2019-05-09T00:08:44.089Z,33.00
2019-05-09T00:11:08.313Z,33.22
2019-05-09T00:13:34.649Z,33.19
2019-05-09T00:16:01.057Z,33.33
2019-05-09T00:18:27.361Z,33.40
2019-05-09T00:20:54.050Z,33.40
2019-05-09T00:25:46.421Z,33.38
2019-05-09T00:28:13.467Z,33.43
2019-05-09T00:30:39.095Z,33.49
2019-05-09T00:33:05.425Z,33.46
2019-05-09T00:35:33.660Z,33.52
2019-05-09T00:37:58.161Z,33.52
2019-05-09T00:40:24.491Z,33.52
2019-05-09T00:42:50.823Z,33.47
2019-05-09T00:47:43.537Z,33.59
2019-05-09T00:50:09.862Z,33.62
2019-05-09T00:52:36.216Z,33.68
2019-05-09T00:55:03.928Z,33.75
2019-05-09T00:57:28.884Z,33.70
2019-05-09T00:59:55.275Z,33.85
2019-05-09T01:02:23.537Z,33.78
2019-05-09T01:04:47.945Z,33.81
2019-05-09T01:07:14.280Z,33.74
2019-05-09T01:09:40.684Z,33.81
2019-05-09T01:12:07.070Z,33.81
2019-05-09T01:14:34.062Z,33.78
2019-05-09T01:16:59.796Z,33.90
2019-05-09T01:19:26.170Z,33.88
2019-05-09T01:21:54.222Z,33.95
2019-05-09T01:24:18.950Z,34.00
2019-05-09T01:26:45.278Z,34.01
2019-05-09T01:29:13.533Z,34.01
2019-05-09T01:31:37.992Z,34.04
2019-05-09T01:34:04.370Z,33.96
2019-05-09T01:36:30.761Z,34.06
2019-05-09T01:38:57.100Z,34.02
2019-05-09T01:41:30.422Z,34.16
2019-05-09T01:43:49.801Z,34.17
2019-05-09T01:46:16.214Z,34.20
2019-05-09T01:48:43.111Z,34.26
2019-05-09T01:51:08.865Z,34.26
2019-05-09T01:53:37.448Z,34.26
2019-05-09T01:56:03.957Z,34.22
2019-05-09T01:58:30.172Z,34.32
2019-05-09T02:00:56.552Z,34.33
2019-05-09T02:03:23.399Z,34.28
2019-05-09T02:05:49.246Z,34.35
2019-05-09T02:08:15.584Z,34.40
2019-05-09T02:10:44.048Z,34.49
2019-05-09T02:13:08.357Z,34.55
2019-05-09T02:15:34.733Z,34.51
2019-05-09T02:18:02.815Z,34.58
2019-05-09T02:20:27.429Z,34.55
2019-05-09T02:22:54.307Z,34.61
2019-05-09T02:25:20.192Z,34.68
2019-05-09T02:27:46.703Z,34.71
2019-05-09T02:30:15.223Z,34.78
2019-05-09T02:32:39.433Z,34.75
2019-05-09T02:35:05.759Z,34.78
2019-05-09T02:37:32.085Z,34.80
2019-05-09T02:39:59.202Z,34.81
2019-05-09T02:42:24.827Z,34.89
2019-05-09T02:44:51.177Z,34.90
2019-05-09T02:47:18.079Z,34.90
2019-05-09T02:49:43.872Z,34.97
2019-05-09T02:52:10.237Z,34.96
2019-05-09T02:54:39.270Z,34.95
2019-05-09T02:57:02.964Z,35.04
2019-05-09T02:59:29.807Z,35.10
2019-05-09T03:01:58.628Z,35.01
2019-05-09T03:04:22.155Z,35.13
2019-05-09T03:06:49.412Z,35.13
2019-05-09T03:09:14.789Z,35.16
2019-05-09T03:11:41.254Z,35.11
2019-05-09T03:14:09.083Z,35.61
2019-05-09T03:16:34.014Z,35.17
2019-05-09T03:19:00.321Z,35.09
2019-05-09T03:21:29.826Z,34.90
2019-05-09T03:23:53.040Z,34.85
2019-05-09T03:26:19.727Z,34.79
2019-05-09T03:28:48.969Z,34.74
2019-05-09T03:31:12.068Z,34.62
2019-05-09T03:33:40.733Z,34.59
2019-05-09T03:36:04.869Z,34.32
2019-05-09T03:38:31.200Z,34.33
2019-05-09T03:40:58.096Z,34.27
2019-05-09T03:43:23.908Z,34.22
2019-05-09T03:45:50.317Z,34.27
2019-05-09T03:48:17.971Z,34.33
2019-05-09T03:50:42.989Z,34.34
2019-05-09T03:53:09.415Z,34.33
2019-05-09T03:55:38.177Z,34.44
2019-05-09T03:58:02.134Z,34.39
2019-05-09T04:00:28.478Z,34.35
2019-05-09T04:05:21.167Z,34.33
2019-05-09T04:07:47.975Z,34.30
2019-05-09T04:10:13.850Z,34.34
2019-05-09T04:12:52.820Z,34.33
2019-05-09T04:15:08.434Z,34.29
2019-05-09T04:17:32.996Z,34.37
2019-05-09T04:19:59.325Z,34.29
2019-05-09T04:22:27.152Z,34.39
2019-05-09T04:24:52.120Z,34.33
2019-05-09T04:27:18.468Z,34.24
2019-05-09T04:29:44.880Z,34.20
2019-05-09T04:32:11.212Z,34.49
